Terminal Aerodrome Forecast
Issued by NWS North Platte, NE

Home | Current Version | Previous Version | Text Only | Print | Product List | Glossary On
Versions: 1 2 3 4 5 6 7 8 9 10 11 12 13 14 15 16 17 18 19 20
000
FTUS43 KLBF 231100
TAFLBF
TAF
KLBF 231133Z 2312/2412 14010KT P6SM -DZ SCT004 OVC008
     FM231800 13012KT P6SM -DZ SCT008 OVC012
     FM240000 11014G25KT 4SM -TSRA SCT004 BKN012CB OVC025
     FM240200 11008G20KT 2SM -DZ BR OVC003=

USA.gov is the U.S. government's official web portal to all federal, state and local government web resources and services.